Time;durP1;ratioP1;P1;durP2;ratioP2;P2;SDS_P1;SDS_P2;PMS_P1;PMS_P2;Temp;Humidity;BMP_temperature;BMP_pressure;BME280_temperature;BME280_humidity;BME280_pressure;Samples;Min_cycle;Max_cycle;Signal;HPM_P1;HPM_P2
2022/04/07 00:00:30;;;;;;;1.13;0.90;;;;;;;20.13;39.26;101025.53;4215586;28;20044;-72
2022/04/07 00:02:31;;;;;;;1.73;1.10;;;;;;;20.15;39.27;101017.75;4216516;28;20093;-71
2022/04/07 00:04:35;;;;;;;1.40;0.90;;;;;;;20.12;39.16;101032.22;4215481;28;20424;-72
2022/04/07 00:06:40;;;;;;;2.67;1.00;;;;;;;20.07;39.04;101029.44;4197692;28;20078;-70
2022/04/07 00:08:42;;;;;;;0.93;0.70;;;;;;;20.19;39.02;101057.78;4213684;28;20062;-71
2022/04/07 00:10:46;;;;;;;0.80;0.80;;;;;;;20.20;39.24;101061.41;4214589;28;20040;-70
2022/04/07 00:12:47;;;;;;;2.92;1.02;;;;;;;20.20;39.16;101067.78;4215682;28;20540;-71
2022/04/07 00:14:49;;;;;;;1.45;0.95;;;;;;;20.19;39.05;101071.69;4214662;28;20086;-71
2022/04/07 00:16:51;;;;;;;1.15;0.90;;;;;;;20.05;38.90;101037.19;4214911;28;20032;-73
2022/04/07 00:18:57;;;;;;;1.20;1.10;;;;;;;20.19;38.86;101052.22;4214958;28;20097;-71
2022/04/07 00:21:10;;;;;;;0.90;0.85;;;;;;;20.20;39.13;101053.88;4214715;28;20048;-72
2022/04/07 00:23:12;;;;;;;1.15;0.93;;;;;;;20.19;39.08;101052.22;4215024;28;20039;-69
2022/04/07 00:25:14;;;;;;;2.45;0.98;;;;;;;20.21;39.16;101049.19;4215313;28;20036;-71
2022/04/07 00:27:18;;;;;;;0.93;0.90;;;;;;;20.11;39.49;101054.69;4215243;28;20044;-70
2022/04/07 00:29:20;;;;;;;2.10;1.23;;;;;;;20.20;39.08;101083.63;4215308;28;20093;-71
2022/04/07 00:31:24;;;;;;;2.33;0.90;;;;;;;20.00;39.09;101042.72;4217539;28;20081;-70
2022/04/07 00:33:26;;;;;;;1.58;1.10;;;;;;;20.14;38.96;101060.56;4216330;28;20429;-72
2022/04/07 00:35:27;;;;;;;1.60;0.95;;;;;;;20.09;39.32;101062.47;4216442;28;20032;-71
2022/04/07 00:37:29;;;;;;;1.25;0.93;;;;;;;20.18;39.15;101077.50;4214377;28;20097;-72
2022/04/07 00:39:34;;;;;;;0.98;0.80;;;;;;;20.19;39.20;101080.00;4214589;28;20040;-73
2022/04/07 00:41:37;;;;;;;1.73;1.33;;;;;;;20.19;39.39;101079.19;4214838;28;20191;-71
2022/04/07 00:43:38;;;;;;;1.25;1.10;;;;;;;20.19;38.99;101074.47;4214224;28;20040;-71
2022/04/07 00:45:40;;;;;;;1.60;1.00;;;;;;;20.19;39.21;101074.47;4214249;28;20080;-72
2022/04/07 00:47:45;;;;;;;1.45;1.00;;;;;;;19.98;39.24;101045.78;4215194;28;20052;-71
2022/04/07 00:49:55;;;;;;;;;;;;;;;20.18;39.05;101083.91;4213486;28;20035;-71
2022/04/07 00:51:57;;;;;;;1.50;1.08;;;;;;;20.19;39.32;101085.56;4215292;28;19916;-70
2022/04/07 00:53:58;;;;;;;1.33;0.95;;;;;;;20.06;39.26;101059.13;4214515;28;20044;-71
2022/04/07 00:56:01;;;;;;;1.38;0.93;;;;;;;20.20;39.27;101076.13;4214604;28;20482;-71
2022/04/07 00:58:03;;;;;;;1.80;1.00;;;;;;;20.19;39.32;101074.47;4214386;28;20078;-71
2022/04/07 01:00:05;;;;;;;0.93;0.90;;;;;;;20.14;38.95;101076.38;4217793;28;20478;-71
2022/04/07 01:02:09;;;;;;;1.13;0.73;;;;;;;20.15;39.07;101090.00;4218284;28;20032;-71
2022/04/07 01:04:11;;;;;;;1.33;0.93;;;;;;;20.17;39.44;101090.56;4216223;28;20036;-71
2022/04/07 01:06:13;;;;;;;1.90;0.80;;;;;;;20.12;39.37;101085.00;4218114;28;20355;-71
2022/04/07 01:08:14;;;;;;;2.15;0.90;;;;;;;20.17;39.18;101092.53;4217733;28;20074;-71
2022/04/07 01:10:16;;;;;;;1.48;0.90;;;;;;;20.16;39.43;101110.28;4217720;28;20105;-71
2022/04/07 01:12:22;;;;;;;0.95;0.88;;;;;;;20.15;39.34;101123.34;4218783;28;20032;-76
2022/04/07 01:14:26;;;;;;;1.35;1.08;;;;;;;20.17;39.32;101120.31;4218419;28;20036;-74
2022/04/07 01:16:28;;;;;;;5.65;1.38;;;;;;;20.16;39.59;101111.16;4217823;28;20514;-74
2022/04/07 01:18:30;;;;;;;7.78;1.90;;;;;;;20.17;39.19;101103.63;4217534;28;20048;-74
2022/04/07 01:20:32;;;;;;;9.55;1.60;;;;;;;20.04;39.38;101074.41;4219006;28;20424;-74
2022/04/07 01:22:39;;;;;;;6.00;1.35;;;;;;;20.09;39.78;101090.25;4217903;28;20044;-72
2022/04/07 01:24:40;;;;;;;6.05;1.70;;;;;;;20.13;39.66;101103.34;4218129;28;20032;-73
2022/04/07 01:26:46;;;;;;;14.80;3.25;;;;;;;20.16;39.91;101113.91;4217779;28;20048;-73
2022/04/07 01:28:50;;;;;;;15.32;4.47;;;;;;;19.83;40.14;101044.88;4217866;28;20048;-72
2022/04/07 01:30:53;;;;;;;25.52;10.60;;;;;;;20.09;40.31;101079.16;4217405;28;20040;-73
2022/04/07 01:32:57;;;;;;;35.38;16.15;;;;;;;20.16;40.41;101086.13;4219845;28;20436;-72
2022/04/07 01:34:58;;;;;;;28.25;13.70;;;;;;;20.12;40.27;101082.22;4217661;28;20044;-72
2022/04/07 01:37:00;;;;;;;19.77;11.85;;;;;;;20.15;40.44;101080.81;4217289;28;20482;-73
2022/04/07 01:39:03;;;;;;;21.70;9.52;;;;;;;20.15;40.16;101083.59;4217288;28;20081;-72
2022/04/07 01:41:05;;;;;;;21.60;10.88;;;;;;;20.16;40.59;101088.91;4218780;28;20024;-72
2022/04/07 01:43:10;;;;;;;19.55;11.73;;;;;;;20.17;40.63;101098.09;4217972;28;20028;-73
2022/04/07 01:45:12;;;;;;;;;;;;;;;20.14;40.21;101099.44;4216994;28;20040;-73
2022/04/07 01:47:17;;;;;;;17.90;10.50;;;;;;;20.18;40.10;101095.03;4218020;28;20308;-73
2022/04/07 01:49:24;;;;;;;19.15;10.80;;;;;;;20.20;40.22;101094.75;4216803;28;20044;-71
2022/04/07 01:51:27;;;;;;;19.88;10.60;;;;;;;20.19;40.17;101096.69;4217413;28;20040;-72
2022/04/07 01:53:32;;;;;;;17.25;9.93;;;;;;;20.17;40.35;101098.91;4216647;28;20536;-71
2022/04/07 01:55:37;;;;;;;16.92;9.68;;;;;;;20.19;40.19;101112.53;4216074;28;20563;-73
2022/04/07 01:57:42;;;;;;;20.73;10.77;;;;;;;20.08;40.30;101095.00;4217775;28;20090;-73
2022/04/07 01:59:44;;;;;;;25.13;12.55;;;;;;;20.06;40.56;101097.19;4217425;28;20044;-73
2022/04/07 02:01:45;;;;;;;23.83;13.05;;;;;;;20.18;40.61;101122.81;4217473;28;20032;-72
2022/04/07 02:03:47;;;;;;;23.25;14.05;;;;;;;20.19;40.70;101118.09;4217564;28;20417;-72
2022/04/07 02:05:48;;;;;;;20.50;12.18;;;;;;;20.17;40.30;101112.81;4218887;28;20466;-72
2022/04/07 02:07:50;;;;;;;25.15;12.98;;;;;;;20.18;41.07;101108.06;4218963;28;20044;-73
2022/04/07 02:09:51;;;;;;;23.20;12.77;;;;;;;20.18;40.81;101111.69;4217290;28;20081;-72
2022/04/07 02:11:52;;;;;;;23.30;12.38;;;;;;;20.10;40.85;101092.75;4217878;28;20032;-72
2022/04/07 02:13:54;;;;;;;20.80;12.13;;;;;;;20.13;40.63;101108.91;4217680;28;20036;-74
2022/04/07 02:15:55;;;;;;;32.60;12.13;;;;;;;20.19;40.42;101118.09;4216444;28;20109;-70
2022/04/07 02:17:57;;;;;;;181.73;23.15;;;;;;;20.20;40.44;101115.03;4216380;28;20101;-73
2022/04/07 02:20:04;;;;;;;85.72;16.35;;;;;;;20.06;40.89;101109.13;4215213;28;20101;-62
2022/04/07 02:22:08;;;;;;;41.33;12.82;;;;;;;20.05;41.08;101142.75;4215654;28;20561;-63
2022/04/07 02:24:10;;;;;;;33.05;12.18;;;;;;;20.02;41.12;101132.16;4215959;28;20093;-63
2022/04/07 02:26:13;;;;;;;40.88;11.93;;;;;;;20.00;41.08;101126.06;4215698;28;20036;-63
2022/04/07 02:28:15;;;;;;;41.95;13.82;;;;;;;19.96;41.37;101122.16;4216172;28;20508;-64
2022/04/07 02:30:16;;;;;;;34.47;12.38;;;;;;;19.98;41.76;101131.06;4216080;28;20044;-64
2022/04/07 02:32:19;;;;;;;31.92;11.45;;;;;;;19.98;41.55;101123.56;4215765;28;20036;-65
2022/04/07 02:34:20;;;;;;;28.73;11.88;;;;;;;19.99;41.62;101113.28;4216027;28;20028;-65
2022/04/07 02:36:21;;;;;;;26.92;11.75;;;;;;;19.98;41.78;101112.44;4215581;28;20036;-67
2022/04/07 02:38:23;;;;;;;36.10;12.35;;;;;;;19.95;41.92;101106.59;4215808;28;20036;-64
2022/04/07 02:40:24;;;;;;;35.40;11.57;;;;;;;19.96;41.79;101130.47;4215751;28;20474;-63
2022/04/07 02:42:25;;;;;;;32.67;11.32;;;;;;;19.99;41.52;101124.38;4215682;28;20032;-62
2022/04/07 02:44:27;;;;;;;31.92;11.32;;;;;;;19.99;41.83;101128.00;4215325;28;20039;-63
2022/04/07 02:46:28;;;;;;;39.70;11.25;;;;;;;20.01;41.82;101141.59;4215617;28;20040;-63
2022/04/07 02:48:30;;;;;;;38.30;12.02;;;;;;;19.98;41.64;101147.72;4215383;28;20048;-63
2022/04/07 02:50:31;;;;;;;36.35;10.55;;;;;;;20.02;41.46;101154.38;4215731;28;20105;-62
2022/04/07 02:52:33;;;;;;;32.25;11.07;;;;;;;19.98;42.03;101148.56;4215462;28;20093;-63
2022/04/07 02:54:34;;;;;;;29.23;10.52;;;;;;;20.02;41.55;101148.81;4215063;28;20425;-62
2022/04/07 02:56:36;;;;;;;30.38;10.60;;;;;;;20.04;41.69;101152.19;4215532;28;20040;-63
2022/04/07 02:58:37;;;;;;;22.65;9.38;;;;;;;20.06;41.85;101156.34;4215805;28;20027;-63
2022/04/07 03:00:39;;;;;;;27.55;10.75;;;;;;;20.08;41.94;101158.88;4215460;28;20497;-62
2022/04/07 03:02:44;;;;;;;36.38;10.85;;;;;;;20.09;41.64;101162.50;4215332;28;20075;-63
2022/04/07 03:04:45;;;;;;;26.45;10.70;;;;;;;19.96;41.72;101144.38;4215724;28;20028;-62
2022/04/07 03:06:46;;;;;;;21.58;9.90;;;;;;;20.07;41.59;101171.09;4215425;28;20417;-62
2022/04/07 03:08:48;;;;;;;23.88;9.98;;;;;;;20.07;41.51;101176.66;4215078;28;20048;-64
2022/04/07 03:10:49;;;;;;;28.92;9.93;;;;;;;20.09;41.64;101171.66;4215467;28;20494;-64
2022/04/07 03:12:53;;;;;;;20.50;9.20;;;;;;;20.09;41.42;101160.56;4215618;28;20416;-63
2022/04/07 03:14:55;;;;;;;24.38;9.63;;;;;;;20.05;41.63;101156.63;4213786;28;20506;-63
2022/04/07 03:16:57;;;;;;;23.67;9.52;;;;;;;20.07;41.64;101173.88;4215411;28;20040;-63
2022/04/07 03:18:58;;;;;;;17.40;9.45;;;;;;;20.05;41.31;101182.47;4214965;28;20040;-62
2022/04/07 03:21:03;;;;;;;23.42;10.07;;;;;;;20.04;41.59;101197.47;4214188;28;20101;-63
2022/04/07 03:23:07;;;;;;;19.05;8.00;;;;;;;20.00;41.47;101178.84;4214762;28;20040;-63
2022/04/07 03:25:09;;;;;;;16.30;8.88;;;;;;;20.09;41.29;101187.50;4214641;28;20072;-63
2022/04/07 03:27:10;;;;;;;17.40;8.35;;;;;;;20.06;41.46;101181.34;4215413;28;20512;-62
2022/04/07 03:29:12;;;;;;;22.38;9.52;;;;;;;19.21;41.75;101046.44;4213229;28;20482;-63
2022/04/07 03:31:13;;;;;;;22.95;8.55;;;;;;;20.08;41.42;101188.59;4215092;28;20093;-62
2022/04/07 03:33:14;;;;;;;19.45;8.93;;;;;;;20.06;41.34;101180.53;4215354;28;20090;-62
2022/04/07 03:35:16;;;;;;;18.52;8.10;;;;;;;19.97;41.76;101159.91;4214662;28;20040;-62
2022/04/07 03:37:18;;;;;;;17.13;8.05;;;;;;;20.08;41.71;101175.56;4214804;28;20043;-62
2022/04/07 03:39:20;;;;;;;19.85;7.78;;;;;;;20.06;41.56;101172.19;4214606;28;20348;-62
2022/04/07 03:41:23;;;;;;;18.60;8.02;;;;;;;20.05;41.71;101168.56;4214772;28;20044;-63
2022/04/07 03:43:24;;;;;;;21.15;9.18;;;;;;;19.94;42.10;101135.47;4214722;28;20089;-62
2022/04/07 03:45:26;;;;;;;24.23;11.73;;;;;;;20.07;41.98;101143.31;4214189;28;20048;-62
2022/04/07 03:47:28;;;;;;;23.42;14.57;;;;;;;20.05;42.05;101145.53;4212300;28;20036;-63
2022/04/07 03:49:29;;;;;;;22.65;14.20;;;;;;;20.07;42.01;101148.88;4214676;28;20044;-62
2022/04/07 03:51:30;;;;;;;29.45;16.52;;;;;;;20.07;41.92;101143.31;4214665;28;20215;-62
2022/04/07 03:53:32;;;;;;;34.83;16.55;;;;;;;20.08;41.92;101150.56;4214463;28;20339;-63
2022/04/07 03:55:33;;;;;;;28.02;15.38;;;;;;;20.10;42.02;101151.09;4214173;28;20097;-63
2022/04/07 03:57:35;;;;;;;25.63;13.70;;;;;;;20.11;42.23;101160.25;4214398;28;20036;-63
2022/04/07 03:59:38;;;;;;;24.50;14.45;;;;;;;20.12;42.02;101157.25;4214974;28;20031;-62
2022/04/07 04:01:40;;;;;;;19.08;11.70;;;;;;;20.15;42.30;101153.06;4214415;28;20101;-63
2022/04/07 04:03:41;;;;;;;20.33;11.93;;;;;;;20.15;42.14;101137.22;4214497;28;20551;-64
2022/04/07 04:05:43;;;;;;;15.82;11.05;;;;;;;20.17;42.34;101132.25;4214091;28;20040;-63
2022/04/07 04:07:44;;;;;;;19.17;10.02;;;;;;;20.18;42.21;101141.41;4214362;28;20552;-63
2022/04/07 04:09:45;;;;;;;17.25;10.27;;;;;;;20.18;42.63;101142.25;4214706;28;20024;-63
2022/04/07 04:11:47;;;;;;;16.65;9.13;;;;;;;20.16;42.27;101130.59;4214935;28;20024;-63
2022/04/07 04:13:48;;;;;;;15.38;8.77;;;;;;;20.18;42.29;101156.16;4214860;28;20027;-63
2022/04/07 04:15:50;;;;;;;22.55;9.05;;;;;;;20.13;42.47;101158.91;4214300;28;20036;-63
2022/04/07 04:17:51;;;;;;;13.25;7.68;;;;;;;20.19;42.58;101168.94;4214292;28;20483;-63
2022/04/07 04:19:52;;;;;;;11.93;7.43;;;;;;;20.20;42.34;101167.81;4214207;28;20090;-63
2022/04/07 04:21:55;;;;;;;10.10;6.75;;;;;;;20.20;42.38;101165.03;4213812;28;20093;-63
2022/04/07 04:23:56;;;;;;;10.40;6.25;;;;;;;20.20;42.73;101175.31;4214210;28;20043;-62
2022/04/07 04:25:58;;;;;;;10.13;6.60;;;;;;;20.19;42.74;101171.69;4214009;28;20436;-63
2022/04/07 04:27:59;;;;;;;12.75;6.43;;;;;;;20.18;42.66;101170.03;4214207;28;20081;-63
2022/04/07 04:30:01;;;;;;;13.95;6.85;;;;;;;20.08;42.74;101145.00;4214136;28;20368;-63
2022/04/07 04:32:02;;;;;;;12.98;6.55;;;;;;;20.15;42.30;101150.28;4213189;28;20125;-63
2022/04/07 04:34:03;;;;;;;11.15;6.53;;;;;;;20.19;42.03;101157.81;4213772;28;20091;-62
2022/04/07 04:36:09;;;;;;;13.23;5.90;;;;;;;20.12;42.59;101148.91;4214229;28;20466;-63
2022/04/07 04:38:10;;;;;;;12.32;6.20;;;;;;;20.20;42.19;101165.03;4214054;28;20032;-62
2022/04/07 04:40:12;;;;;;;8.93;6.00;;;;;;;20.08;42.29;101166.38;4214109;28;20044;-62
2022/04/07 04:42:15;;;;;;;11.10;6.70;;;;;;;20.21;41.80;101177.84;4208104;28;20062;-64
2022/04/07 04:44:17;;;;;;;11.48;6.47;;;;;;;20.22;41.79;101176.72;4213758;28;20098;-62
2022/04/07 04:46:21;;;;;;;10.52;6.00;;;;;;;20.22;42.07;101164.78;4214247;28;20032;-63
2022/04/07 04:48:22;;;;;;;10.55;6.22;;;;;;;20.17;42.11;101140.59;4207537;28;20044;-64
2022/04/07 04:50:27;;;;;;;11.73;6.65;;;;;;;20.23;42.17;101128.38;4213809;28;20052;-63
2022/04/07 04:52:28;;;;;;;;;;;;;;;20.21;42.04;101127.00;4214264;28;20401;-63
2022/04/07 04:54:30;;;;;;;9.93;6.57;;;;;;;20.26;41.69;101125.06;4214002;28;20639;-64
2022/04/07 04:56:31;;;;;;;15.38;6.78;;;;;;;20.24;41.78;101120.88;4213901;28;20040;-63
2022/04/07 04:58:32;;;;;;;8.77;6.22;;;;;;;20.26;41.72;101102.00;4213570;28;20043;-63
2022/04/07 05:00:34;;;;;;;11.77;6.22;;;;;;;20.25;41.67;101101.16;4213994;28;20101;-63
2022/04/07 05:02:37;;;;;;;11.80;6.28;;;;;;;20.20;41.89;101076.13;4213835;28;20487;-63
2022/04/07 05:04:39;;;;;;;9.07;6.22;;;;;;;20.23;42.03;101086.69;4213438;28;20043;-63
2022/04/07 05:06:40;;;;;;;10.95;6.22;;;;;;;20.23;42.33;101097.81;4212363;28;20543;-63
2022/04/07 05:08:44;;;;;;;13.57;6.10;;;;;;;20.19;41.88;101095.84;4213939;28;20032;-64
2022/04/07 05:10:45;;;;;;;20.60;6.85;;;;;;;20.24;41.71;101109.75;4213934;28;20186;-64
2022/04/07 05:12:47;;;;;;;11.93;6.00;;;;;;;20.23;42.11;101117.25;4213672;28;20036;-64
2022/04/07 05:14:48;;;;;;;12.10;6.15;;;;;;;20.22;41.89;101123.09;4213668;28;20451;-64
2022/04/07 05:16:49;;;;;;;9.30;6.43;;;;;;;20.22;42.00;101121.16;4214078;28;20035;-64
2022/04/07 05:18:56;;;;;;;14.02;6.05;;;;;;;20.22;42.40;101117.53;4214157;28;20085;-64
2022/04/07 05:20:57;;;;;;;11.68;6.55;;;;;;;20.18;42.41;101125.59;4213407;28;20086;-64
2022/04/07 05:22:58;;;;;;;11.73;6.03;;;;;;;20.23;42.20;101136.72;4213557;28;20121;-62
2022/04/07 05:25:00;;;;;;;12.20;6.38;;;;;;;20.23;42.10;101128.38;4213380;28;20479;-62
2022/04/07 05:27:01;;;;;;;13.07;5.95;;;;;;;20.21;42.11;101118.66;4213386;28;20040;-62
2022/04/07 05:29:04;;;;;;;10.13;5.70;;;;;;;20.22;42.06;101132.28;4213518;28;20093;-63
2022/04/07 05:31:06;;;;;;;8.80;5.80;;;;;;;20.22;42.19;101146.16;4213677;28;20040;-62
2022/04/07 05:33:07;;;;;;;14.80;5.63;;;;;;;20.23;42.30;101139.50;4214086;28;20471;-62
2022/04/07 05:35:10;;;;;;;21.65;6.20;;;;;;;20.16;42.22;101130.59;4213417;28;20040;-62
2022/04/07 05:37:11;;;;;;;9.45;5.53;;;;;;;20.22;41.95;101135.06;4200071;28;20074;-62
2022/04/07 05:39:15;;;;;;;12.82;5.50;;;;;;;20.25;41.79;101139.22;4201264;28;20048;-62
2022/04/07 05:41:16;;;;;;;13.32;5.47;;;;;;;20.24;42.31;101138.38;4213625;28;20040;-63
2022/04/07 05:43:18;;;;;;;9.98;4.88;;;;;;;20.14;42.01;101110.56;4213142;28;20036;-62
2022/04/07 05:45:20;;;;;;;34.65;6.90;;;;;;;20.22;41.94;101115.59;4209339;28;20536;-62
2022/04/07 05:47:21;;;;;;;25.02;5.20;;;;;;;20.23;42.06;101114.47;4216433;28;20101;-64
2022/04/07 05:49:25;;;;;;;19.92;5.65;;;;;;;20.07;41.77;101090.53;4216442;28;20040;-64
2022/04/07 05:51:26;;;;;;;12.02;4.90;;;;;;;20.23;41.97;101117.25;4216518;28;20044;-64
2022/04/07 05:53:28;;;;;;;14.60;5.40;;;;;;;20.22;41.83;101118.38;4215849;28;20044;-63
2022/04/07 05:55:31;;;;;;;11.77;5.13;;;;;;;20.21;41.69;101118.66;4216301;28;20074;-64
2022/04/07 05:57:33;;;;;;;10.98;5.25;;;;;;;20.21;41.79;101113.94;4216088;28;20451;-64
2022/04/07 05:59:40;;;;;;;9.13;4.82;;;;;;;20.19;41.90;101115.31;4216733;28;20556;-64
2022/04/07 06:01:41;;;;;;;11.25;4.78;;;;;;;20.18;41.75;101108.91;4216766;28;20040;-64
2022/04/07 06:03:43;;;;;;;16.67;4.70;;;;;;;20.17;41.94;101103.63;4216660;28;20113;-63
2022/04/07 06:05:44;;;;;;;10.00;4.25;;;;;;;20.15;41.59;101103.88;4216527;28;20421;-63
2022/04/07 06:07:47;;;;;;;11.82;4.85;;;;;;;20.15;41.84;101112.22;4216557;28;20040;-64
2022/04/07 06:09:48;;;;;;;13.05;4.38;;;;;;;20.12;41.89;101110.00;4216441;28;20441;-65
2022/04/07 06:11:50;;;;;;;9.35;4.25;;;;;;;20.13;41.55;101100.56;4216102;28;20421;-64
2022/04/07 06:13:51;;;;;;;12.85;4.28;;;;;;;20.12;41.55;101096.13;4219255;28;20093;-64
2022/04/07 06:15:52;;;;;;;14.68;4.97;;;;;;;20.11;41.67;101088.88;4215405;28;20445;-63
2022/04/07 06:17:54;;;;;;;9.63;4.75;;;;;;;20.10;41.60;101095.53;4215770;28;20081;-64
2022/04/07 06:19:58;;;;;;;12.93;4.45;;;;;;;20.04;41.90;101077.19;4214630;28;20036;-64
2022/04/07 06:22:05;;;;;;;9.23;4.20;;;;;;;20.09;41.67;101074.44;4215612;28;20044;-64
2022/04/07 06:24:06;;;;;;;8.77;3.70;;;;;;;20.08;41.63;101072.75;4216357;28;20040;-64
2022/04/07 06:26:08;;;;;;;8.55;4.50;;;;;;;20.10;41.58;101081.66;4216036;28;20467;-64
2022/04/07 06:28:09;;;;;;;8.00;3.55;;;;;;;20.09;41.68;101074.44;4215791;28;20157;-64
2022/04/07 06:30:16;;;;;;;6.97;3.95;;;;;;;20.03;41.51;101064.41;4216208;28;20097;-64
2022/04/07 06:32:17;;;;;;;7.30;3.85;;;;;;;20.07;41.57;101051.66;4215817;28;20475;-66
2022/04/07 06:34:20;;;;;;;8.35;3.88;;;;;;;20.06;41.64;101058.28;4215445;28;20047;-64
2022/04/07 06:36:22;;;;;;;5.55;3.83;;;;;;;20.03;41.64;101065.25;4215774;28;20557;-65
2022/04/07 06:38:26;;;;;;;8.23;3.83;;;;;;;20.00;41.55;101071.34;4216164;28;20039;-64
2022/04/07 06:40:29;;;;;;;6.95;3.65;;;;;;;20.03;41.71;101086.63;4215714;28;20048;-65
2022/04/07 06:42:30;;;;;;;8.43;3.35;;;;;;;19.96;41.42;101075.75;4214617;28;20453;-64
2022/04/07 06:44:32;;;;;;;7.30;3.45;;;;;;;20.02;41.54;101073.81;4215297;28;20027;-64
2022/04/07 06:46:33;;;;;;;5.85;3.13;;;;;;;19.99;41.58;101063.28;4218528;28;20036;-64
2022/04/07 06:48:38;;;;;;;6.30;3.70;;;;;;;19.96;41.48;101041.59;4215512;28;20035;-64
2022/04/07 06:50:39;;;;;;;9.15;3.80;;;;;;;19.97;41.88;101038.53;4215175;28;20032;-63
2022/04/07 06:52:42;;;;;;;8.20;3.83;;;;;;;20.01;41.65;101030.50;4213763;28;20432;-64
2022/04/07 06:54:43;;;;;;;4.90;3.22;;;;;;;20.00;41.51;101020.50;4214387;28;20085;-64
2022/04/07 06:56:44;;;;;;;6.95;3.33;;;;;;;20.02;41.38;101013.59;4215367;28;20040;-64
2022/04/07 06:58:46;;;;;;;6.70;3.85;;;;;;;19.97;41.48;100999.66;4215585;28;20040;-64
2022/04/07 07:00:47;;;;;;;5.80;3.22;;;;;;;20.00;41.21;101007.44;4215994;28;20028;-64
2022/04/07 07:02:51;;;;;;;7.57;3.30;;;;;;;19.93;41.73;100994.91;4215363;28;20436;-64
2022/04/07 07:04:53;;;;;;;7.10;3.30;;;;;;;19.98;41.23;100986.63;4215036;28;20429;-64
2022/04/07 07:06:54;;;;;;;8.25;3.58;;;;;;;20.00;41.55;100981.63;4215467;28;20097;-63
2022/04/07 07:08:55;;;;;;;5.32;3.38;;;;;;;19.99;41.11;100974.41;4215222;28;20032;-64
2022/04/07 07:10:57;;;;;;;5.30;3.00;;;;;;;19.97;41.32;100966.31;4215278;28;20109;-64
2022/04/07 07:13:01;;;;;;;5.68;2.83;;;;;;;19.97;41.57;100957.16;4215036;28;20088;-64
2022/04/07 07:15:05;;;;;;;7.88;2.78;;;;;;;19.97;41.60;100957.97;4214680;28;20433;-64
2022/04/07 07:17:08;;;;;;;3.75;2.53;;;;;;;19.88;41.19;100942.13;4215486;28;20445;-64
2022/04/07 07:19:16;;;;;;;3.53;2.50;;;;;;;19.96;41.15;100952.72;4214695;28;20036;-64
2022/04/07 07:21:18;;;;;;;3.90;2.67;;;;;;;19.97;41.39;100959.94;4218516;28;20040;-64
2022/04/07 07:23:19;;;;;;;6.53;2.90;;;;;;;19.93;41.42;100945.78;4215390;28;20036;-64
2022/04/07 07:25:20;;;;;;;5.20;2.90;;;;;;;19.94;41.49;100950.22;4215058;28;20441;-65
2022/04/07 07:27:22;;;;;;;4.65;2.83;;;;;;;19.94;41.32;100950.22;4215401;28;20044;-64
2022/04/07 07:29:23;;;;;;;4.72;2.60;;;;;;;19.95;41.49;100939.94;4214807;28;20529;-64
2022/04/07 07:31:27;;;;;;;4.82;2.75;;;;;;;19.95;41.01;100935.22;4214746;28;20487;-65
2022/04/07 07:33:28;;;;;;;4.78;3.35;;;;;;;19.95;41.15;100915.78;4216022;28;20073;-64
2022/04/07 07:35:30;;;;;;;6.78;2.58;;;;;;;19.94;41.20;100905.78;4216184;28;20121;-63
2022/04/07 07:37:31;;;;;;;9.98;2.80;;;;;;;19.95;41.24;100901.06;4231500;28;20035;-63
2022/04/07 07:39:33;;;;;;;4.20;2.53;;;;;;;19.94;41.33;100888.28;4231744;27;20039;-64
2022/04/07 07:41:37;;;;;;;4.50;2.35;;;;;;;19.94;41.17;100882.75;4231964;28;20039;-64
2022/04/07 07:43:38;;;;;;;5.43;2.58;;;;;;;19.94;41.05;100888.28;4231588;28;20069;-63
2022/04/07 07:45:39;;;;;;;4.72;2.75;;;;;;;19.95;41.08;100898.28;4232804;28;20027;-64
2022/04/07 07:47:41;;;;;;;11.07;2.92;;;;;;;19.95;41.06;100899.13;4232556;28;20047;-64
2022/04/07 07:49:42;;;;;;;4.95;2.88;;;;;;;19.94;41.44;100902.19;4229138;28;20100;-64
2022/04/07 07:51:47;;;;;;;3.20;2.33;;;;;;;19.83;41.07;100897.69;4231737;28;20141;-64
2022/04/07 07:53:51;;;;;;;6.05;2.55;;;;;;;19.94;41.37;100911.34;4231650;28;20039;-64
2022/04/07 07:55:54;;;;;;;4.72;2.28;;;;;;;19.94;41.13;100910.50;4231461;28;20478;-63
2022/04/07 07:57:59;;;;;;;3.10;2.17;;;;;;;19.94;41.16;100911.34;4231667;28;20104;-64
2022/04/07 08:00:05;;;;;;;4.30;2.10;;;;;;;19.94;41.12;100910.50;4231811;28;20055;-64
2022/04/07 08:02:09;;;;;;;4.97;2.15;;;;;;;19.89;41.17;100896.63;4230979;28;20044;-64
2022/04/07 08:04:12;;;;;;;6.53;2.20;;;;;;;19.92;41.44;100905.22;4230741;28;20039;-64
2022/04/07 08:06:13;;;;;;;4.95;2.55;;;;;;;19.90;41.15;100895.50;4231727;28;20421;-64
2022/04/07 08:08:14;;;;;;;3.65;2.10;;;;;;;19.91;41.20;100900.78;4230728;28;20451;-64
2022/04/07 08:10:16;;;;;;;3.70;2.20;;;;;;;19.92;40.94;100902.44;4231504;28;20112;-64
2022/04/07 08:12:17;;;;;;;2.85;1.88;;;;;;;19.92;41.10;100890.50;4231315;28;20089;-63
2022/04/07 08:14:19;;;;;;;3.33;1.95;;;;;;;19.90;41.40;100885.22;4226354;28;20040;-64
2022/04/07 08:16:23;;;;;;;3.67;2.55;;;;;;;19.87;41.30;100877.44;4214711;28;20044;-64
2022/04/07 08:18:27;;;;;;;3.77;1.97;;;;;;;19.91;41.09;100883.28;4213494;28;20036;-65
2022/04/07 08:20:28;;;;;;;4.03;2.20;;;;;;;19.88;41.06;100872.72;4213053;28;20276;-64
2022/04/07 08:22:33;;;;;;;2.88;1.98;;;;;;;19.91;40.92;100861.06;4213257;28;20052;-64
2022/04/07 08:24:35;;;;;;;2.67;1.97;;;;;;;19.91;41.13;100849.94;4214085;28;20488;-64
2022/04/07 08:26:36;;;;;;;5.30;2.55;;;;;;;19.90;41.17;100837.19;4214319;28;20039;-64
2022/04/07 08:28:40;;;;;;;4.38;1.67;;;;;;;19.91;40.88;100838.84;4214207;28;20032;-63
2022/04/07 08:30:41;;;;;;;3.95;2.42;;;;;;;19.91;41.02;100828.56;4214640;28;20031;-64
2022/04/07 08:32:42;;;;;;;2.75;1.90;;;;;;;19.90;40.82;100806.63;4214618;28;20032;-64
2022/04/07 08:34:44;;;;;;;3.13;1.85;;;;;;;19.91;40.88;100794.41;4213987;28;20070;-65
2022/04/07 08:36:47;;;;;;;5.30;2.10;;;;;;;19.84;40.71;100774.41;4214083;28;20116;-64
2022/04/07 08:38:48;;;;;;;3.05;2.03;;;;;;;19.90;41.03;100787.19;4214187;28;20168;-64
2022/04/07 08:40:53;;;;;;;3.53;2.08;;;;;;;19.90;40.86;100776.09;4213594;28;20044;-64
2022/04/07 08:42:56;;;;;;;3.53;2.08;;;;;;;19.88;40.99;100783.84;4213193;28;20102;-64
2022/04/07 08:44:57;;;;;;;4.22;1.90;;;;;;;19.89;40.68;100791.91;4213966;28;20436;-64
2022/04/07 08:46:59;;;;;;;3.60;2.10;;;;;;;19.90;40.83;100798.31;4224500;28;20031;-63
2022/04/07 08:49:08;;;;;;;3.80;2.70;;;;;;;19.89;41.25;100808.59;4229956;28;20039;-64
2022/04/07 08:51:16;;;;;;;4.63;2.17;;;;;;;19.78;40.86;100790.22;4230796;28;20047;-64
2022/04/07 08:53:17;;;;;;;4.15;2.15;;;;;;;19.89;41.22;100824.41;4225991;28;20436;-64
2022/04/07 08:55:19;;;;;;;3.40;2.03;;;;;;;19.90;41.20;100814.97;4230575;28;20044;-63
2022/04/07 08:57:21;;;;;;;2.75;1.88;;;;;;;19.90;41.06;100803.84;4231262;28;20035;-64
2022/04/07 08:59:22;;;;;;;2.83;1.80;;;;;;;19.89;41.04;100791.09;4230952;28;20092;-65
2022/04/07 09:01:23;;;;;;;5.43;2.17;;;;;;;19.85;40.79;100776.91;4229651;28;20502;-64
2022/04/07 09:03:28;;;;;;;1.92;1.70;;;;;;;19.87;40.96;100769.13;4217051;28;20433;-63
2022/04/07 09:05:29;;;;;;;3.13;1.98;;;;;;;19.86;41.16;100758.31;4214194;28;20036;-63
2022/04/07 09:07:32;;;;;;;2.38;1.75;;;;;;;19.87;40.92;100748.88;4214119;28;20474;-64
2022/04/07 09:09:36;;;;;;;2.65;1.83;;;;;;;19.86;41.28;100741.66;4212639;28;20047;-63
2022/04/07 09:11:37;;;;;;;2.22;1.88;;;;;;;19.88;40.72;100747.75;4214170;28;20552;-64
2022/04/07 09:13:42;;;;;;;2.03;1.83;;;;;;;19.87;41.08;100737.75;4214217;28;20028;-64
2022/04/07 09:15:45;;;;;;;3.65;1.90;;;;;;;19.74;41.16;100717.75;4213687;28;20070;-64
2022/04/07 09:18:00;;;;;;;3.28;1.95;;;;;;;19.86;41.05;100747.22;4213700;28;20036;-63
2022/04/07 09:20:08;;;;;;;3.47;1.90;;;;;;;19.84;41.15;100732.75;4215140;28;20101;-64
2022/04/07 09:22:12;;;;;;;2.88;1.80;;;;;;;19.84;41.15;100716.09;4217292;28;20109;-64
2022/04/07 09:24:15;;;;;;;1.88;1.30;;;;;;;19.86;40.90;100719.44;4217311;28;20077;-64